Time;durP1;ratioP1;P1;durP2;ratioP2;P2;SDS_P1;SDS_P2;PMS_P1;PMS_P2;Temp;Humidity;BMP_temperature;BMP_pressure;BME280_temperature;BME280_humidity;BME280_pressure;Samples;Min_cycle;Max_cycle;Signal;HPM_P1;HPM_P2
2022/07/16 00:02:47;;;;;;;3.55;1.95;;;;;;;16.32;79.67;100397.64;1713033;83;21094;-66
2022/07/16 00:05:16;;;;;;;7.15;2.25;;;;;;;16.36;79.73;100399.41;1691964;85;21090;-66
2022/07/16 00:07:46;;;;;;;4.10;2.20;;;;;;;16.41;79.48;100400.38;1720509;82;21059;-67
2022/07/16 00:10:17;;;;;;;5.35;1.90;;;;;;;16.44;79.36;100399.91;1720641;83;21051;-66
2022/07/16 00:12:48;;;;;;;4.58;1.92;;;;;;;16.46;79.14;100395.52;1720532;82;21020;-67
2022/07/16 00:15:18;;;;;;;9.23;2.02;;;;;;;16.43;79.02;100391.30;1720695;83;21414;-67
2022/07/16 00:19:15;;;;;;;8.98;1.80;;;;;;;16.44;79.11;100399.06;1721526;82;20993;-67
2022/07/16 00:20:20;;;;;;;3.85;1.70;;;;;;;16.46;79.03;100401.89;1728649;82;21023;-67
2022/07/16 00:22:50;;;;;;;4.90;1.80;;;;;;;16.45;78.96;100402.97;1736624;82;21024;-67
2022/07/16 00:25:20;;;;;;;3.55;1.90;;;;;;;16.43;78.97;100404.29;1720695;83;21083;-66
2022/07/16 00:27:49;;;;;;;3.67;1.85;;;;;;;16.36;79.07;100412.69;1720590;83;21417;-67
2022/07/16 00:30:19;;;;;;;4.90;2.10;;;;;;;16.30;79.30;100415.55;1720815;83;21008;-67
2022/07/16 00:32:49;;;;;;;3.90;1.85;;;;;;;16.28;79.37;100413.56;1720853;83;21068;-65
2022/07/16 00:35:20;;;;;;;3.87;1.80;;;;;;;16.23;79.44;100405.94;1720846;83;20988;-66
2022/07/16 00:37:49;;;;;;;3.87;2.00;;;;;;;16.21;79.36;100405.33;1721125;82;21079;-66
2022/07/16 00:40:19;;;;;;;3.35;2.05;;;;;;;16.15;79.42;100411.80;1742317;82;21058;-67
2022/07/16 00:42:50;;;;;;;2.77;2.00;;;;;;;16.10;79.53;100403.36;1743094;82;21027;-66
2022/07/16 00:45:21;;;;;;;3.45;1.80;;;;;;;16.06;79.63;100407.67;1723461;83;21044;-67
2022/07/16 00:47:50;;;;;;;2.33;1.65;;;;;;;16.04;79.73;100409.82;1723128;83;21031;-68
2022/07/16 00:50:20;;;;;;;3.90;1.98;;;;;;;16.00;79.83;100410.83;1723151;83;21444;-68
2022/07/16 00:52:51;;;;;;;3.98;1.90;;;;;;;15.96;79.90;100410.14;1723229;83;20996;-68
2022/07/16 00:55:21;;;;;;;3.37;2.12;;;;;;;15.90;79.94;100413.30;1723161;83;21063;-67
2022/07/16 00:57:51;;;;;;;3.77;1.82;;;;;;;15.83;80.05;100411.16;1732703;82;21082;-66
2022/07/16 01:00:20;;;;;;;2.50;1.65;;;;;;;15.78;80.25;100404.11;1743562;82;20988;-66
2022/07/16 01:02:51;;;;;;;2.15;1.67;;;;;;;15.80;80.27;100404.18;1742775;82;21066;-68
2022/07/16 01:05:20;;;;;;;3.77;1.90;;;;;;;15.85;80.07;100411.77;1725259;83;21454;-68
2022/07/16 01:07:50;;;;;;;6.22;2.00;;;;;;;15.83;79.94;100408.40;1716299;83;21461;-67
2022/07/16 01:10:22;;;;;;;4.45;2.12;;;;;;;15.82;79.91;100411.70;1716329;83;21021;-66
2022/07/16 01:12:58;;;;;;;6.95;2.77;;;;;;;15.79;79.82;100404.41;1715928;83;21449;-67
2022/07/16 01:15:29;;;;;;;9.90;2.70;;;;;;;15.78;79.71;100404.95;1654349;87;21083;-67
2022/07/16 01:17:58;;;;;;;4.83;2.52;;;;;;;15.77;79.45;100398.27;1662079;86;21075;-66
2022/07/16 01:20:28;;;;;;;5.83;2.35;;;;;;;15.72;79.21;100409.17;1663604;86;21471;-66
2022/07/16 01:22:58;;;;;;;3.62;2.30;;;;;;;15.64;79.43;100406.73;1663593;86;21094;-66
2022/07/16 01:25:28;;;;;;;5.10;2.55;;;;;;;15.57;79.71;100406.73;1687768;85;21106;-66
2022/07/16 01:27:58;;;;;;;4.87;2.45;;;;;;;15.54;79.87;100406.66;1725574;83;21009;-66
2022/07/16 01:30:27;;;;;;;3.80;2.00;;;;;;;15.52;80.01;100404.66;1725701;83;21500;-68
2022/07/16 01:32:57;;;;;;;4.25;2.10;;;;;;;15.49;80.11;100402.37;1736425;80;21023;-67
2022/07/16 01:35:27;;;;;;;3.20;1.95;;;;;;;15.50;80.21;100414.26;1780864;80;21029;-68
2022/07/16 01:37:57;;;;;;;4.53;2.22;;;;;;;15.48;80.36;100417.78;1787244;80;21014;-67
2022/07/16 01:40:28;;;;;;;3.08;2.17;;;;;;;15.46;80.36;100419.93;1783057;80;21511;-68
2022/07/16 01:42:59;;;;;;;4.62;2.00;;;;;;;15.42;80.54;100415.94;1779367;80;21729;-68
2022/07/16 01:45:29;;;;;;;5.03;2.17;;;;;;;15.41;80.62;100423.37;1779803;80;21058;-68
2022/07/16 01:47:59;;;;;;;3.70;2.05;;;;;;;15.40;80.52;100422.23;1779594;80;21058;-68
2022/07/16 01:50:29;;;;;;;4.95;2.33;;;;;;;15.38;80.65;100416.09;1779537;80;21019;-67
2022/07/16 01:52:59;;;;;;;3.60;2.30;;;;;;;15.36;80.73;100419.08;1779146;80;21948;-68
2022/07/16 01:55:29;;;;;;;5.37;2.50;;;;;;;15.37;80.73;100424.06;1774793;80;21466;-67
2022/07/16 01:57:59;;;;;;;5.40;2.60;;;;;;;15.37;80.67;100417.16;1771165;80;21080;-68
2022/07/16 02:00:29;;;;;;;7.20;2.90;;;;;;;15.38;80.61;100421.08;1747460;81;21020;-66
2022/07/16 02:02:59;;;;;;;6.33;2.83;;;;;;;15.33;80.67;100418.16;1766490;81;21019;-69
2022/07/16 02:05:30;;;;;;;5.45;3.10;;;;;;;15.28;80.79;100423.52;1773604;80;21065;-68
2022/07/16 02:08:21;;;;;;;5.47;2.50;;;;;;;15.25;80.80;100421.22;1787250;80;21034;-68
2022/07/16 02:11:14;;;;;;;3.72;2.22;;;;;;;15.23;80.76;100417.84;1689590;84;21026;-68
2022/07/16 02:13:43;;;;;;;4.95;2.60;;;;;;;15.20;80.80;100420.52;1744149;81;20987;-68
2022/07/16 02:16:14;;;;;;;6.95;2.75;;;;;;;15.18;80.90;100415.77;1788561;80;21502;-68
2022/07/16 02:18:44;;;;;;;5.12;2.30;;;;;;;15.17;81.08;100415.45;1788569;80;21042;-68
2022/07/16 02:21:14;;;;;;;4.15;2.60;;;;;;;15.19;81.14;100426.27;1788555;80;21083;-69
2022/07/16 02:23:44;;;;;;;4.62;2.75;;;;;;;15.21;80.97;100424.13;1731983;83;21262;-69
2022/07/16 02:26:17;;;;;;;7.35;2.62;;;;;;;15.20;80.73;100430.18;1704329;82;21161;-68
2022/07/16 02:28:46;;;;;;;5.37;2.83;;;;;;;15.17;80.82;100431.17;1788412;80;21010;-66
2022/07/16 02:31:16;;;;;;;4.45;2.47;;;;;;;15.17;80.93;100427.88;1788327;80;21098;-68
2022/07/16 02:33:47;;;;;;;3.83;2.50;;;;;;;15.17;81.01;100433.39;1788204;80;21502;-68
2022/07/16 02:36:17;;;;;;;2.37;1.82;;;;;;;15.19;80.86;100435.39;1788377;80;21038;-68
2022/07/16 02:38:47;;;;;;;6.70;2.37;;;;;;;15.19;80.59;100433.17;1788322;80;21121;-69
2022/07/16 02:41:17;;;;;;;4.95;2.15;;;;;;;15.20;80.54;100436.23;1788283;80;21462;-68
2022/07/16 02:43:47;;;;;;;3.30;2.30;;;;;;;15.19;80.38;100433.17;1791263;80;21496;-68
2022/07/16 02:46:17;;;;;;;4.40;2.17;;;;;;;15.12;80.26;100432.39;1793573;80;21030;-69
2022/07/16 02:48:47;;;;;;;4.60;2.80;;;;;;;15.07;80.42;100432.22;1788404;80;21019;-68
2022/07/16 02:51:18;;;;;;;4.03;2.90;;;;;;;15.07;80.59;100436.36;1788539;80;21030;-68
2022/07/16 02:53:49;;;;;;;4.80;2.05;;;;;;;15.06;80.67;100437.44;1788494;80;21426;-67
2022/07/16 02:56:18;;;;;;;2.65;1.90;;;;;;;15.04;80.75;100439.58;1788665;80;21015;-68
2022/07/16 02:58:48;;;;;;;3.35;2.42;;;;;;;15.03;80.88;100440.64;1788358;80;21450;-69
2022/07/16 03:01:18;;;;;;;7.60;2.50;;;;;;;15.02;80.95;100437.58;1788321;80;20991;-68
2022/07/16 03:03:48;;;;;;;7.00;2.45;;;;;;;15.00;80.95;100439.72;1793228;80;21069;-67
2022/07/16 03:06:20;;;;;;;6.95;2.25;;;;;;;14.99;81.16;100429.22;1790182;80;21517;-68
2022/07/16 03:08:52;;;;;;;4.78;2.00;;;;;;;15.00;81.28;100431.44;1788463;80;21006;-67
2022/07/16 03:11:23;;;;;;;8.40;2.08;;;;;;;14.98;81.44;100430.28;1788496;80;21050;-66
2022/07/16 03:13:53;;;;;;;3.92;1.90;;;;;;;14.98;81.70;100435.80;1788688;80;20982;-67
2022/07/16 03:16:24;;;;;;;3.98;2.08;;;;;;;15.01;81.71;100433.13;1788483;80;21027;-66
2022/07/16 03:18:53;;;;;;;6.58;2.35;;;;;;;15.04;81.81;100432.14;1788533;80;21063;-66
2022/07/16 03:21:25;;;;;;;3.08;2.15;;;;;;;15.12;81.73;100438.75;1724168;83;21138;-66
2022/07/16 03:23:55;;;;;;;4.15;2.17;;;;;;;15.13;81.66;100430.78;1724167;83;21073;-68
2022/07/16 03:26:25;;;;;;;7.40;2.60;;;;;;;15.13;81.76;100433.54;1724258;83;21089;-68
2022/07/16 03:28:55;;;;;;;6.37;2.58;;;;;;;15.12;81.85;100431.01;1724124;83;21085;-68
2022/07/16 03:31:25;;;;;;;8.00;2.87;;;;;;;15.14;81.94;100426.11;1724152;83;21086;-67
2022/07/16 03:33:55;;;;;;;5.00;2.40;;;;;;;15.15;82.08;100431.93;1724044;83;21105;-67
2022/07/16 03:36:26;;;;;;;8.08;2.90;;;;;;;15.18;82.21;100435.62;1726053;83;21601;-67
2022/07/16 03:39:02;;;;;;;5.35;2.55;;;;;;;15.20;82.28;100440.37;1741071;80;21022;-67
2022/07/16 03:41:31;;;;;;;6.53;2.72;;;;;;;15.21;82.26;100437.92;1788682;80;21038;-69
2022/07/16 03:44:01;;;;;;;6.47;3.00;;;;;;;15.26;82.25;100438.09;1788367;80;20991;-68
2022/07/16 03:46:32;;;;;;;9.43;3.52;;;;;;;15.30;82.21;100446.76;1788632;80;21007;-66
2022/07/16 03:49:02;;;;;;;5.42;3.20;;;;;;;15.35;82.25;100449.68;1788701;80;20990;-68
2022/07/16 03:51:32;;;;;;;5.87;3.00;;;;;;;15.39;82.22;100449.00;1788475;80;21383;-67
2022/07/16 03:54:03;;;;;;;7.12;3.08;;;;;;;15.48;81.95;100448.16;1788309;80;21058;-66
2022/07/16 03:56:34;;;;;;;5.20;2.90;;;;;;;15.59;81.39;100452.95;1788712;80;21493;-68
2022/07/16 03:59:04;;;;;;;6.55;3.40;;;;;;;15.73;80.79;100450.92;1788403;80;21019;-68
2022/07/16 04:01:34;;;;;;;6.42;3.05;;;;;;;15.82;80.43;100460.59;1788653;80;21054;-66
2022/07/16 04:04:05;;;;;;;9.50;3.37;;;;;;;15.86;80.00;100453.52;1791901;80;21109;-68
2022/07/16 04:06:35;;;;;;;5.25;2.83;;;;;;;15.95;79.74;100452.14;1793058;80;21038;-67
2022/07/16 04:09:05;;;;;;;11.30;3.70;;;;;;;16.06;79.30;100456.04;1791598;80;21073;-67
2022/07/16 04:11:34;;;;;;;8.63;3.98;;;;;;;16.12;78.78;100452.34;1788424;80;21038;-68
2022/07/16 04:14:03;;;;;;;8.48;4.28;;;;;;;16.16;78.54;100453.56;1785580;80;21046;-67
2022/07/16 04:16:33;;;;;;;10.93;5.83;;;;;;;16.22;78.26;100454.02;1745471;81;21039;-68
2022/07/16 04:19:07;;;;;;;11.28;6.10;;;;;;;16.29;78.13;100460.87;1745442;82;21011;-66
2022/07/16 04:21:38;;;;;;;12.58;6.45;;;;;;;16.37;77.71;100455.02;1745450;81;21011;-67
2022/07/16 04:24:09;;;;;;;14.15;7.15;;;;;;;16.49;76.76;100451.75;1745810;82;21028;-67
2022/07/16 04:26:39;;;;;;;10.48;4.70;;;;;;;16.60;76.20;100452.87;1745565;81;20980;-67
2022/07/16 04:29:10;;;;;;;11.33;6.03;;;;;;;16.69;75.48;100451.48;1745527;81;21102;-67
2022/07/16 04:31:39;;;;;;;12.37;5.20;;;;;;;16.79;74.76;100458.13;1745716;82;21515;-68
2022/07/16 04:34:08;;;;;;;10.32;4.70;;;;;;;16.86;74.32;100455.25;1745570;81;21094;-69
2022/07/16 04:36:39;;;;;;;7.05;3.90;;;;;;;16.94;73.62;100455.47;1745578;81;21035;-68
2022/07/16 04:39:09;;;;;;;13.13;5.10;;;;;;;17.04;72.82;100462.11;1745410;82;21063;-69
2022/07/16 04:41:40;;;;;;;8.85;5.40;;;;;;;17.15;72.50;100460.44;1745899;81;21036;-68
2022/07/16 04:44:09;;;;;;;11.08;5.30;;;;;;;17.23;72.26;100454.54;1745480;82;21038;-68
2022/07/16 04:46:40;;;;;;;22.90;11.18;;;;;;;17.32;71.64;100454.48;1745841;82;21035;-64
2022/07/16 04:49:11;;;;;;;36.38;17.50;;;;;;;17.38;71.02;100446.59;1745510;82;21039;-67
2022/07/16 04:51:41;;;;;;;29.05;15.43;;;;;;;17.48;70.36;100460.37;1745592;82;21004;-69
2022/07/16 04:54:11;;;;;;;37.55;20.72;;;;;;;17.56;70.00;100456.73;1745557;82;21075;-67
2022/07/16 04:56:41;;;;;;;47.30;24.12;;;;;;;17.64;69.47;100453.59;1745600;82;21004;-67
2022/07/16 04:59:10;;;;;;;33.25;17.62;;;;;;;17.73;69.15;100454.09;1745600;82;21015;-69
2022/07/16 05:01:40;;;;;;;16.37;8.83;;;;;;;17.83;68.81;100458.47;1745527;82;21416;-67
2022/07/16 05:04:09;;;;;;;12.98;6.30;;;;;;;17.96;67.72;100451.81;1706150;83;21062;-67
2022/07/16 05:06:39;;;;;;;8.15;5.30;;;;;;;18.12;65.93;100455.20;1738447;82;21035;-67
2022/07/16 05:09:09;;;;;;;8.15;4.37;;;;;;;18.30;64.46;100457.82;1745499;82;21074;-67
2022/07/16 05:11:40;;;;;;;4.55;2.85;;;;;;;18.53;63.95;100454.64;1745693;81;21020;-67
2022/07/16 05:14:11;;;;;;;8.05;3.00;;;;;;;18.84;63.29;100460.23;1739521;81;20999;-66
2022/07/16 05:16:40;;;;;;;6.10;2.45;;;;;;;19.20;61.61;100456.16;1778086;81;21014;-68
2022/07/16 05:19:09;;;;;;;4.30;2.10;;;;;;;19.51;58.80;100450.00;1738593;82;21095;-67
2022/07/16 05:21:40;;;;;;;4.10;2.08;;;;;;;19.74;57.37;100457.31;1778382;81;21042;-68
2022/07/16 05:24:09;;;;;;;4.83;1.98;;;;;;;19.95;56.49;100455.09;1778296;81;21027;-66
2022/07/16 05:26:40;;;;;;;3.50;1.87;;;;;;;20.22;56.28;100457.13;1778365;81;21031;-66
2022/07/16 05:29:10;;;;;;;4.50;3.25;;;;;;;20.54;55.89;100449.73;1738647;82;21122;-68
2022/07/16 05:31:44;;;;;;;13.35;4.05;;;;;;;20.92;54.76;100451.23;1777934;81;21094;-68
2022/07/16 05:34:24;;;;;;;4.67;2.87;;;;;;;21.30;53.56;100455.21;1733786;82;21020;-66
2022/07/16 05:36:54;;;;;;;15.50;5.80;;;;;;;21.67;52.41;100453.81;1778588;81;21011;-66
2022/07/16 05:39:28;;;;;;;5.28;2.50;;;;;;;21.99;51.84;100454.27;1777757;81;21483;-66
2022/07/16 05:42:00;;;;;;;2.37;1.70;;;;;;;22.30;50.42;100458.92;1738756;82;21072;-66
2022/07/16 05:44:30;;;;;;;8.00;2.00;;;;;;;22.59;49.07;100464.86;1738996;82;21036;-65
2022/07/16 05:47:03;;;;;;;2.58;1.62;;;;;;;22.80;48.15;100467.73;1738558;82;21047;-66
2022/07/16 05:49:36;;;;;;;3.95;1.67;;;;;;;22.93;46.61;100470.85;1738565;82;21039;-66
2022/07/16 05:52:09;;;;;;;3.80;1.75;;;;;;;23.09;46.30;100464.16;1777999;81;21012;-66
2022/07/16 05:54:39;;;;;;;4.03;1.60;;;;;;;23.33;46.05;100462.19;1778169;81;21086;-66
2022/07/16 05:57:13;;;;;;;3.20;1.87;;;;;;;23.54;45.70;100463.87;1778110;81;21438;-66
2022/07/16 05:59:43;;;;;;;5.15;1.85;;;;;;;23.75;44.35;100461.06;1738753;82;21048;-67
2022/07/16 06:02:13;;;;;;;6.90;1.80;;;;;;;23.84;43.29;100453.77;1738833;82;21020;-67
2022/07/16 06:04:43;;;;;;;10.08;2.83;;;;;;;23.82;43.80;100453.20;1738260;82;21131;-66
2022/07/16 06:07:21;;;;;;;3.95;1.92;;;;;;;23.95;43.46;100452.61;1727321;83;21038;-66
2022/07/16 06:09:52;;;;;;;3.92;1.90;;;;;;;24.12;42.18;100449.50;1727230;83;21142;-67
2022/07/16 06:12:22;;;;;;;3.47;1.60;;;;;;;24.14;42.75;100446.69;1727259;83;21034;-66
2022/07/16 06:14:52;;;;;;;4.40;1.60;;;;;;;24.24;42.67;100455.04;1731755;83;21516;-66
2022/07/16 06:17:23;;;;;;;2.10;1.30;;;;;;;24.42;41.67;100445.17;1778741;80;20979;-66
2022/07/16 06:19:55;;;;;;;7.60;1.72;;;;;;;24.66;41.01;100449.52;1694859;84;21490;-65
2022/07/16 06:22:25;;;;;;;2.90;1.50;;;;;;;24.96;40.22;100442.32;1658648;86;21055;-65
2022/07/16 06:24:54;;;;;;;3.02;1.30;;;;;;;25.22;39.92;100446.34;1658911;86;21064;-65
2022/07/16 06:27:25;;;;;;;3.47;1.70;;;;;;;25.38;39.27;100445.11;1659025;86;21511;-65
2022/07/16 06:29:56;;;;;;;5.00;2.00;;;;;;;25.52;38.57;100450.30;1659011;85;21090;-66
2022/07/16 06:32:26;;;;;;;6.53;1.85;;;;;;;25.69;37.89;100453.25;1659142;86;21531;-67
2022/07/16 06:34:56;;;;;;;3.77;1.80;;;;;;;25.77;37.00;100452.59;1658962;86;21046;-67
2022/07/16 06:37:26;;;;;;;2.98;1.62;;;;;;;25.75;37.50;100452.89;1679651;82;21054;-66
2022/07/16 06:39:56;;;;;;;2.42;1.37;;;;;;;25.81;36.55;100455.08;1788441;80;21022;-65
2022/07/16 06:42:25;;;;;;;6.83;2.60;;;;;;;25.91;36.16;100456.36;1788348;80;21026;-67
2022/07/16 06:44:59;;;;;;;4.10;1.67;;;;;;;26.02;36.30;100452.33;1788396;80;20999;-66
2022/07/16 06:47:30;;;;;;;6.60;1.80;;;;;;;26.12;36.92;100457.83;1788388;80;21431;-68
2022/07/16 06:50:02;;;;;;;3.52;1.40;;;;;;;26.33;35.70;100452.81;1788264;80;21015;-66
2022/07/16 06:52:32;;;;;;;4.70;1.27;;;;;;;26.49;34.98;100453.44;1789573;80;21053;-66
2022/07/16 06:55:03;;;;;;;2.55;1.22;;;;;;;26.66;34.23;100451.51;1789077;80;21569;-65
2022/07/16 06:57:33;;;;;;;3.10;1.52;;;;;;;26.89;33.90;100449.22;1788694;80;21026;-65
2022/07/16 07:00:03;;;;;;;2.45;1.17;;;;;;;26.89;33.90;100449.22;1788405;80;21082;-67
2022/07/16 07:02:33;;;;;;;2.70;1.40;;;;;;;26.99;32.61;100458.92;1788295;80;21017;-67
2022/07/16 07:05:03;;;;;;;7.92;2.20;;;;;;;26.99;32.54;100448.25;1721679;82;21052;-66
2022/07/16 07:07:32;;;;;;;3.00;1.60;;;;;;;26.85;32.44;100456.02;1788320;80;21662;-67
2022/07/16 07:10:02;;;;;;;2.42;1.52;;;;;;;26.85;32.44;100456.02;1788310;80;21051;-66
2022/07/16 07:12:37;;;;;;;2.98;1.50;;;;;;;26.85;33.12;100447.58;1788423;80;20987;-65
2022/07/16 07:15:07;;;;;;;1.52;1.17;;;;;;;26.85;33.12;100447.58;1788408;80;21069;-64
2022/07/16 07:17:38;;;;;;;5.92;1.82;;;;;;;26.87;31.92;100446.44;1787989;80;21442;-62
2022/07/16 07:20:08;;;;;;;2.52;1.62;;;;;;;26.83;32.39;100444.81;1788481;80;21046;-63
2022/07/16 07:22:38;;;;;;;3.30;1.40;;;;;;;26.71;32.80;100448.08;1788343;80;21018;-62
2022/07/16 07:25:10;;;;;;;5.53;1.60;;;;;;;26.73;33.76;100444.97;1788295;80;21486;-64
2022/07/16 07:27:40;;;;;;;2.95;1.47;;;;;;;26.94;33.62;100449.70;1748231;81;21030;-64
2022/07/16 07:30:13;;;;;;;2.60;1.27;;;;;;;27.20;33.33;100444.52;1788181;80;21062;-64
2022/07/16 07:32:46;;;;;;;2.47;1.25;;;;;;;27.46;32.79;100445.20;1788507;80;21054;-62
2022/07/16 07:35:16;;;;;;;2.75;1.30;;;;;;;27.61;31.63;100444.69;1788311;80;21065;-64
2022/07/16 07:37:47;;;;;;;5.37;1.47;;;;;;;27.59;31.12;100442.15;1788381;80;21633;-64
2022/07/16 07:40:17;;;;;;;6.00;1.87;;;;;;;27.64;31.36;100446.88;1788324;80;21058;-64
2022/07/16 07:42:47;;;;;;;2.40;1.50;;;;;;;27.78;31.21;100443.51;1788166;80;21050;-63
2022/07/16 07:45:16;;;;;;;2.92;1.60;;;;;;;27.64;31.52;100437.03;1721102;82;21081;-64
2022/07/16 07:47:47;;;;;;;6.35;2.47;;;;;;;27.64;31.52;100437.03;1784014;80;21070;-69
2022/07/16 07:50:17;;;;;;;5.85;3.02;;;;;;;27.74;32.13;100444.70;1783010;80;21018;-63
2022/07/16 07:53:09;;;;;;;3.10;1.80;;;;;;;27.81;31.95;100445.70;1793329;80;21070;-63
2022/07/16 07:55:39;;;;;;;4.05;1.77;;;;;;;27.77;30.76;100444.66;1799718;79;21007;-66
2022/07/16 07:58:13;;;;;;;3.95;1.80;;;;;;;27.60;31.25;100435.95;1743321;81;21489;-68
2022/07/16 08:00:45;;;;;;;7.42;1.90;;;;;;;27.66;31.59;100433.33;1743394;82;21481;-69
2022/07/16 08:03:16;;;;;;;5.20;1.70;;;;;;;27.88;31.27;100429.80;1763922;79;21086;-72
2022/07/16 08:05:46;;;;;;;2.90;1.30;;;;;;;27.95;30.68;100432.46;1791480;79;21030;-70
2022/07/16 08:08:16;;;;;;;4.58;1.32;;;;;;;28.09;29.52;100425.45;1783016;80;20975;-69
2022/07/16 08:10:46;;;;;;;2.33;1.20;;;;;;;28.22;29.20;100427.98;1783083;80;21099;-71
2022/07/16 08:13:17;;;;;;;3.80;1.25;;;;;;;28.40;28.83;100428.47;1782995;80;21064;-74
2022/07/16 08:15:49;;;;;;;3.33;1.50;;;;;;;28.53;28.68;100426.19;1783033;80;21006;-72
2022/07/16 08:18:19;;;;;;;4.08;1.22;;;;;;;28.48;28.44;100420.67;1755336;80;21098;-68
2022/07/16 08:20:49;;;;;;;4.92;1.80;;;;;;;28.31;29.74;100421.33;1796006;79;20995;-71
2022/07/16 08:25:44;;;;;;;6.15;1.42;;;;;;;28.32;29.69;100416.53;1803807;78;21007;-72
2022/07/16 08:25:54;;;;;;;4.47;1.47;;;;;;;28.20;29.88;100423.24;1804408;79;21431;-73
2022/07/16 08:28:25;;;;;;;1.70;1.10;;;;;;;28.05;29.99;100423.00;1804514;79;21459;-72
2022/07/16 08:30:55;;;;;;;3.30;1.37;;;;;;;27.94;30.09;100420.09;1797344;79;21458;-75
2022/07/16 08:33:26;;;;;;;3.75;1.70;;;;;;;27.94;30.09;100420.09;1783182;80;21070;-73
2022/07/16 08:35:56;;;;;;;2.60;1.37;;;;;;;28.13;30.23;100415.79;1782991;80;21523;-72
2022/07/16 08:38:26;;;;;;;2.37;1.27;;;;;;;28.40;29.82;100418.02;1783007;80;21014;-74
2022/07/16 08:41:02;;;;;;;5.12;1.60;;;;;;;28.71;29.22;100417.34;1782842;79;21045;-73
2022/07/16 08:43:31;;;;;;;6.25;1.70;;;;;;;28.85;29.10;100414.50;1752954;80;21114;-73
2022/07/16 08:46:02;;;;;;;1.62;1.15;;;;;;;28.71;29.92;100409.72;1783029;80;20978;-76
2022/07/16 08:48:37;;;;;;;2.20;1.10;;;;;;;28.75;29.28;100404.27;1783021;79;21048;-73
2022/07/16 08:51:09;;;;;;;4.90;1.47;;;;;;;28.76;28.78;100409.34;1742424;81;21509;-75
2022/07/16 08:53:39;;;;;;;2.58;1.25;;;;;;;28.82;28.60;100404.66;1725831;82;21031;-74
2022/07/16 08:56:08;;;;;;;3.00;1.47;;;;;;;28.81;28.16;100402.99;1676835;83;21459;-71
2022/07/16 08:58:39;;;;;;;3.75;1.20;;;;;;;28.79;28.03;100392.61;1726902;83;21109;-70
2022/07/16 09:01:08;;;;;;;5.37;1.98;;;;;;;28.71;28.56;100399.84;1744894;81;21025;-66
2022/07/16 09:03:38;;;;;;;4.00;1.95;;;;;;;28.85;28.68;100397.58;1697560;84;21043;-68
2022/07/16 09:06:08;;;;;;;4.45;1.77;;;;;;;29.11;28.21;100392.13;1749247;81;21042;-68
2022/07/16 09:08:38;;;;;;;3.60;1.70;;;;;;;29.34;28.17;100395.20;1754709;79;21056;-69
2022/07/16 09:11:22;;;;;;;3.40;1.70;;;;;;;29.45;27.60;100390.15;1780452;80;21019;-66
2022/07/16 09:14:09;;;;;;;3.22;1.55;;;;;;;29.40;27.71;100397.31;1779854;79;21538;-66
2022/07/16 09:16:40;;;;;;;3.33;1.25;;;;;;;29.29;27.68;100382.06;1780241;80;21051;-68
2022/07/16 09:19:18;;;;;;;5.20;1.50;;;;;;;29.16;27.96;100393.41;1780273;80;21062;-69
2022/07/16 09:22:02;;;;;;;3.42;1.47;;;;;;;29.07;28.21;100390.52;1780432;79;20983;-65
2022/07/16 09:24:38;;;;;;;1.52;1.12;;;;;;;29.03;28.05;100388.92;1775312;79;21127;-69
2022/07/16 09:27:22;;;;;;;4.43;1.60;;;;;;;28.99;28.01;100378.60;1768992;80;21062;-67
2022/07/16 09:29:58;;;;;;;3.33;1.42;;;;;;;28.76;28.37;100381.97;1768717;81;21789;-67
2022/07/16 09:32:39;;;;;;;2.27;1.25;;;;;;;28.61;28.34;100385.99;1768784;81;21015;-65
2022/07/16 09:35:15;;;;;;;3.58;1.50;;;;;;;28.36;28.66;100373.30;1798898;79;21221;-68
2022/07/16 09:37:56;;;;;;;2.42;1.50;;;;;;;28.02;28.59;100379.38;1803863;78;21046;-67
2022/07/16 09:40:45;;;;;;;2.12;1.35;;;;;;;27.61;30.53;100384.16;1804150;79;21050;-65
2022/07/16 09:43:19;;;;;;;3.40;1.50;;;;;;;27.39;30.47;100389.89;1804325;79;21086;-66
2022/07/16 09:45:52;;;;;;;2.92;1.40;;;;;;;27.13;31.45;100389.49;1804339;78;21022;-69
2022/07/16 09:48:30;;;;;;;1.98;1.20;;;;;;;26.89;32.10;100390.73;1804013;79;21073;-66
2022/07/16 09:51:23;;;;;;;4.22;1.50;;;;;;;26.64;32.26;100391.38;1796441;79;20996;-67
2022/07/16 09:53:54;;;;;;;2.37;1.30;;;;;;;26.41;32.92;100388.08;1794559;79;21035;-67
2022/07/16 09:56:26;;;;;;;2.67;1.42;;;;;;;26.13;33.32;100389.28;1777919;81;20972;-67
2022/07/16 09:58:57;;;;;;;4.12;1.87;;;;;;;26.00;33.70;100385.77;1777937;81;20984;-66
2022/07/16 10:01:30;;;;;;;3.08;1.40;;;;;;;25.88;34.12;100389.02;1777529;80;21071;-68
2022/07/16 10:03:59;;;;;;;4.40;1.50;;;;;;;25.78;33.62;100391.11;1777989;81;21054;-67
2022/07/16 10:06:31;;;;;;;2.85;1.37;;;;;;;25.63;33.56;100378.06;1777886;79;20991;-70
2022/07/16 10:09:00;;;;;;;2.77;1.27;;;;;;;25.54;33.73;100375.64;1777982;81;21067;-67
2022/07/16 10:11:30;;;;;;;3.15;1.42;;;;;;;25.43;33.86;100367.91;1713544;81;21522;-66
2022/07/16 10:14:00;;;;;;;4.65;1.50;;;;;;;25.41;34.20;100370.73;1782389;80;21034;-68
2022/07/16 10:16:41;;;;;;;3.45;1.40;;;;;;;25.38;34.35;100365.16;1794094;80;21015;-67
2022/07/16 10:19:12;;;;;;;1.80;1.35;;;;;;;25.38;34.40;100359.55;1776580;80;21051;-67
2022/07/16 10:21:42;;;;;;;5.95;1.45;;;;;;;25.40;34.75;100362.05;1746550;82;21019;-67
2022/07/16 10:24:15;;;;;;;5.30;1.75;;;;;;;25.47;34.40;100359.73;1776863;80;21063;-67
2022/07/16 10:26:45;;;;;;;3.12;1.40;;;;;;;25.52;34.00;100348.45;1777587;79;21034;-67
2022/07/16 10:29:16;;;;;;;3.30;1.40;;;;;;;25.63;34.09;100353.38;1777541;81;21003;-65
2022/07/16 10:34:38;;;;;;;2.77;1.20;;;;;;;25.79;33.45;100351.52;1777902;80;21066;-68
2022/07/16 10:37:12;;;;;;;2.55;1.20;;;;;;;25.83;33.85;100347.53;1778122;79;21035;-67
2022/07/16 10:40:10;;;;;;;2.70;1.35;;;;;;;25.81;33.91;100355.42;1777947;79;21101;-67
2022/07/16 10:42:40;;;;;;;3.00;1.40;;;;;;;25.79;34.07;100350.11;1777876;79;21078;-68
2022/07/16 10:45:11;;;;;;;2.87;1.47;;;;;;;25.71;33.77;100349.94;1777994;81;21086;-68
2022/07/16 10:47:47;;;;;;;4.92;1.70;;;;;;;25.63;34.23;100346.36;1777974;81;21007;-67
2022/07/16 10:50:19;;;;;;;3.10;1.60;;;;;;;25.56;33.93;100343.91;1777751;81;21015;-68
2022/07/16 10:52:50;;;;;;;5.33;2.00;;;;;;;25.47;33.75;100345.13;1777094;80;20996;-68
2022/07/16 10:55:32;;;;;;;3.02;1.57;;;;;;;25.42;33.68;100340.15;1780555;80;21064;-68
2022/07/16 10:58:02;;;;;;;2.35;1.30;;;;;;;25.46;33.72;100339.25;1782634;79;21025;-66
2022/07/16 11:00:33;;;;;;;5.22;1.40;;;;;;;25.48;32.88;100335.58;1783213;80;21916;-71
2022/07/16 11:03:04;;;;;;;2.33;1.27;;;;;;;25.51;32.96;100343.97;1783147;80;21013;-70
2022/07/16 11:05:35;;;;;;;3.27;1.40;;;;;;;25.55;32.31;100340.27;1783340;80;21041;-67
2022/07/16 11:08:09;;;;;;;3.80;1.50;;;;;;;25.56;32.65;100337.73;1768310;80;21075;-69
2022/07/16 11:10:40;;;;;;;6.22;1.50;;;;;;;25.60;32.51;100334.59;1783658;79;21485;-69
2022/07/16 11:13:15;;;;;;;3.52;2.12;;;;;;;25.68;31.83;100336.50;1783035;80;21015;-69
2022/07/16 11:15:45;;;;;;;3.08;1.40;;;;;;;25.69;31.91;100328.35;1783192;80;21008;-70
2022/07/16 11:18:18;;;;;;;4.10;1.80;;;;;;;25.71;32.25;100349.37;1783313;80;21035;-69
2022/07/16 11:20:49;;;;;;;3.25;1.35;;;;;;;25.68;31.99;100338.73;1783392;80;21007;-69
2022/07/16 11:23:20;;;;;;;2.85;1.30;;;;;;;25.65;32.22;100335.09;1783314;80;21016;-71
2022/07/16 11:25:57;;;;;;;2.15;1.40;;;;;;;25.58;32.04;100333.22;1783357;80;21109;-70
2022/07/16 11:28:27;;;;;;;2.35;1.35;;;;;;;25.49;31.73;100336.42;1789090;79;21070;-69
2022/07/16 11:31:06;;;;;;;2.83;1.30;;;;;;;25.41;32.09;100338.47;1768740;79;21451;-70
2022/07/16 11:33:39;;;;;;;3.95;1.47;;;;;;;25.37;32.26;100323.38;1750903;81;21038;-69
2022/07/16 11:36:13;;;;;;;2.90;1.52;;;;;;;25.34;32.28;100320.56;1752144;81;21026;-69
2022/07/16 11:38:42;;;;;;;1.90;1.22;;;;;;;25.37;32.62;100331.79;1752532;81;21058;-65
2022/07/16 11:41:12;;;;;;;5.40;1.30;;;;;;;25.44;32.40;100325.25;1769777;80;21005;-66
2022/07/16 11:43:43;;;;;;;2.37;1.22;;;;;;;25.44;32.07;100323.28;1783196;80;21052;-67
2022/07/16 11:46:24;;;;;;;2.95;1.37;;;;;;;25.44;31.96;100330.30;1794124;79;21428;-66
2022/07/16 11:48:55;;;;;;;2.60;1.20;;;;;;;25.44;32.36;100326.66;1783296;80;21023;-71